DTTJ/DJE METAR and TAF weather

Enter ICAO airport designator
Station Type Date Time Source
DTTJ METAR 2019/06/26 22:00 UTC NOAA

DTTJ 262200Z 09005KT CAVOK 26/19 Q1017 NOSIG


Station Type Date Time Source
DTTJ Decoded METAR 2019/06/26 22:00 UTC NOAA

Djerba Mellita, Tunisia (DTTJ) 33-52N 010-46E 4M
Jun 26, 2019 - 06:00 PM EDT / 2019.06.26 2200 UTC
Wind: from the E (090 degrees) at 6 MPH (5 KT):0
Visibility: greater than 7 mile(s):0
Temperature: 78 F (26 C)
Dew Point: 66 F (19 C)
Relative Humidity: 65%
Pressure (altimeter): 30.03 in. Hg (1017 hPa)
ob: DTTJ 262200Z 09005KT CAVOK 26/19 Q1017 NOSIG
cycle: 22

Station Type Date Time Source
DTTJ TAF 2019/06/26 18:12 UTC NOAA

TAF DTTJ 261700Z 2618/2718 06012KT 9999 FEW023 PROB30
TEMPO 2618/2622 08015G25KT

Example: see airport list